Time;durP1;ratioP1;P1;durP2;ratioP2;P2;SDS_P1;SDS_P2;PMS_P1;PMS_P2;Temp;Humidity;BMP_temperature;BMP_pressure;BME280_temperature;BME280_humidity;BME280_pressure;Samples;Min_cycle;Max_cycle;Signal;HPM_P1;HPM_P2
2022/12/27 00:02:19;;;;;;;11.48;2.67;;;;;;;;;;5029878;28;20526;-67
2022/12/27 00:04:45;;;;;;;12.18;3.25;;;;;;;;;;5029327;28;20106;-67
2022/12/27 00:07:11;;;;;;;9.27;2.40;;;;;;;;;;5029467;28;20496;-67
2022/12/27 00:09:37;;;;;;;14.13;3.08;;;;;;;;;;5029601;28;20034;-67
2022/12/27 00:12:03;;;;;;;10.65;2.55;;;;;;;;;;5048893;28;20033;-67
2022/12/27 00:14:29;;;;;;;6.45;2.45;;;;;;;;;;5049503;28;20394;-67
2022/12/27 00:16:55;;;;;;;9.90;2.70;;;;;;;;;;5049300;28;20244;-67
2022/12/27 00:19:21;;;;;;;12.80;3.15;;;;;;;;;;5048963;28;20402;-67
2022/12/27 00:21:47;;;;;;;13.27;2.83;;;;;;;;;;5049397;28;20048;-67
2022/12/27 00:24:13;;;;;;;13.27;2.72;;;;;;;;;;5049000;28;20601;-67
2022/12/27 00:26:39;;;;;;;11.50;2.63;;;;;;;;;;5034747;28;20037;-67
2022/12/27 00:29:05;;;;;;;11.02;2.80;;;;;;;;;;5027910;28;20048;-67
2022/12/27 00:31:32;;;;;;;12.88;2.47;;;;;;;;;;5029185;28;20041;-67
2022/12/27 00:33:59;;;;;;;13.23;3.70;;;;;;;;;;5029038;28;20084;-67
2022/12/27 00:36:26;;;;;;;11.18;2.78;;;;;;;;;;5027915;28;20034;-67
2022/12/27 00:38:53;;;;;;;14.30;2.80;;;;;;;;;;5029455;28;20662;-67
2022/12/27 00:41:19;;;;;;;11.98;3.03;;;;;;;;;;5028968;28;20048;-67
2022/12/27 00:43:45;;;;;;;10.45;2.80;;;;;;;;;;5029149;28;20369;-67
2022/12/27 00:46:12;;;;;;;15.15;2.67;;;;;;;;;;5028978;28;20534;-67
2022/12/27 00:48:38;;;;;;;10.05;2.50;;;;;;;;;;5028668;28;20048;-67
2022/12/27 00:51:06;;;;;;;12.57;3.05;;;;;;;;;;5029052;28;20284;-67
2022/12/27 00:53:32;;;;;;;10.30;2.75;;;;;;;;;;5028850;28;20427;-67
2022/12/27 00:55:58;;;;;;;11.80;3.15;;;;;;;;;;5028592;28;20046;-67
2022/12/27 00:58:24;;;;;;;8.63;2.40;;;;;;;;;;5028920;28;20051;-67
2022/12/27 01:00:50;;;;;;;9.38;2.53;;;;;;;;;;5029035;28;20052;-67
2022/12/27 01:03:17;;;;;;;11.73;3.30;;;;;;;;;;5028361;28;20045;-67
2022/12/27 01:05:43;;;;;;;6.15;3.03;;;;;;;;;;5028954;28;20045;-67
2022/12/27 01:08:09;;;;;;;11.13;2.53;;;;;;;;;;5027576;28;20046;-67
2022/12/27 01:10:35;;;;;;;26.98;4.03;;;;;;;;;;5036200;28;20155;-67
2022/12/27 01:13:02;;;;;;;10.93;2.40;;;;;;;;;;5048837;28;20367;-67
2022/12/27 01:15:28;;;;;;;12.45;2.67;;;;;;;;;;5047149;28;20041;-67
2022/12/27 01:17:54;;;;;;;12.02;3.38;;;;;;;;;;5048413;28;20045;-67
2022/12/27 01:20:20;;;;;;;12.82;2.67;;;;;;;;;;5048249;28;20118;-67
2022/12/27 01:22:46;;;;;;;14.60;2.80;;;;;;;;;;5048563;28;20429;-67
2022/12/27 01:25:12;;;;;;;10.20;3.13;;;;;;;;;;5046053;28;20079;-67
2022/12/27 01:27:38;;;;;;;9.15;2.67;;;;;;;;;;5028566;28;20049;-67
2022/12/27 01:30:05;;;;;;;7.65;2.58;;;;;;;;;;5028589;28;20531;-67
2022/12/27 01:32:32;;;;;;;13.75;2.72;;;;;;;;;;5028530;28;20358;-67
2022/12/27 01:34:58;;;;;;;13.30;2.45;;;;;;;;;;5028773;28;20552;-67
2022/12/27 01:37:24;;;;;;;8.50;2.63;;;;;;;;;;5027311;28;20199;-67
2022/12/27 01:39:50;;;;;;;8.93;2.55;;;;;;;;;;5028472;28;20403;-67
2022/12/27 01:45:02;;;;;;;6.20;2.30;;;;;;;;;;5028514;28;20166;-67
2022/12/27 01:47:39;;;;;;;13.43;2.65;;;;;;;;;;5028128;28;20073;-67
2022/12/27 01:50:06;;;;;;;16.95;2.85;;;;;;;;;;5028195;28;20037;-67
2022/12/27 01:52:36;;;;;;;13.98;2.35;;;;;;;;;;5028824;28;20483;-67
2022/12/27 01:55:06;;;;;;;15.85;2.70;;;;;;;;;;5029245;28;20253;-67
2022/12/27 01:57:32;;;;;;;10.05;2.72;;;;;;;;;;5032618;28;20076;-67
2022/12/27 01:59:58;;;;;;;12.93;2.40;;;;;;;;;;5031971;28;20077;-67
2022/12/27 02:02:24;;;;;;;8.55;2.22;;;;;;;;;;5031720;28;20038;-67
2022/12/27 02:04:50;;;;;;;10.10;2.22;;;;;;;;;;5032300;28;20041;-67
2022/12/27 02:07:17;;;;;;;13.65;2.78;;;;;;;;;;5031771;28;20056;-67
2022/12/27 02:09:53;;;;;;;11.90;2.70;;;;;;;;;;5030803;28;20072;-67
2022/12/27 02:12:19;;;;;;;11.18;2.95;;;;;;;;;;5051808;28;20045;-67
2022/12/27 02:14:47;;;;;;;11.63;2.53;;;;;;;;;;5033834;28;20037;-67
2022/12/27 02:17:13;;;;;;;12.20;2.33;;;;;;;;;;5051418;28;20041;-67
2022/12/27 02:19:39;;;;;;;7.78;2.00;;;;;;;;;;5051348;28;20053;-67
2022/12/27 02:22:20;;;;;;;13.52;2.80;;;;;;;;;;5051572;28;20116;-67
2022/12/27 02:25:05;;;;;;;6.47;2.05;;;;;;;;;;5051459;28;20037;-67
2022/12/27 02:27:37;;;;;;;9.60;2.03;;;;;;;;;;5011976;28;20080;-67
2022/12/27 02:30:03;;;;;;;11.15;2.15;;;;;;;;;;5011913;28;20033;-67
2022/12/27 02:32:32;;;;;;;16.30;2.33;;;;;;;;;;5011679;28;20392;-67
2022/12/27 02:34:58;;;;;;;12.40;2.50;;;;;;;;;;5011635;28;20523;-67
2022/12/27 02:37:26;;;;;;;8.30;2.33;;;;;;;;;;5011834;28;20041;-67
2022/12/27 02:39:52;;;;;;;8.98;2.20;;;;;;;;;;5011428;28;20117;-67
2022/12/27 02:53:43;;;;;;;18.42;3.35;;;;;;;;;;5011340;28;20042;-67
2022/12/27 02:58:59;;;;;;;18.77;3.08;;;;;;;;;;5011614;28;20049;-67
2022/12/27 03:04:48;;;;;;;11.32;2.70;;;;;;;;;;5011507;28;20578;-67
2022/12/27 03:07:24;;;;;;;8.10;2.22;;;;;;;;;;5010247;28;20476;-67
2022/12/27 03:15:55;;;;;;;12.10;2.58;;;;;;;;;;5050711;28;20124;-67
2022/12/27 03:18:27;;;;;;;12.23;2.55;;;;;;;;;;5050728;28;20399;-67
2022/12/27 03:26:26;;;;;;;11.55;2.03;;;;;;;;;;5038694;28;20048;-67
2022/12/27 03:34:31;;;;;;;13.57;2.47;;;;;;;;;;5031078;28;20412;-67
2022/12/27 03:40:00;;;;;;;10.98;2.40;;;;;;;;;;5030291;28;20075;-67
2022/12/27 03:45:13;;;;;;;14.57;2.45;;;;;;;;;;5030343;28;20049;-67
2022/12/27 03:47:59;;;;;;;11.68;2.22;;;;;;;;;;5028573;28;20048;-67
2022/12/27 03:50:28;;;;;;;12.73;2.20;;;;;;;;;;5030193;28;20061;-67
2022/12/27 03:52:57;;;;;;;12.48;2.00;;;;;;;;;;5029582;28;20088;-67
2022/12/27 03:55:23;;;;;;;10.65;2.30;;;;;;;;;;5030236;28;20064;-67
2022/12/27 03:57:49;;;;;;;12.93;2.30;;;;;;;;;;5029668;28;20079;-67
2022/12/27 04:00:16;;;;;;;18.40;2.25;;;;;;;;;;5030072;28;20427;-67
2022/12/27 04:02:42;;;;;;;14.95;2.28;;;;;;;;;;5029697;28;20114;-67
2022/12/27 04:05:08;;;;;;;11.52;2.00;;;;;;;;;;5030060;28;20041;-67
2022/12/27 04:07:34;;;;;;;14.02;2.50;;;;;;;;;;5029671;28;20053;-67
2022/12/27 04:34:43;;;;;;;8.05;2.40;;;;;;;;;;5029745;28;20099;-67
2022/12/27 04:37:10;;;;;;;11.57;3.17;;;;;;;;;;5028131;28;20579;-67
2022/12/27 04:39:36;;;;;;;11.70;2.22;;;;;;;;;;5028684;28;20071;-67
2022/12/27 04:55:58;;;;;;;19.15;2.53;;;;;;;;;;5029270;28;20052;-67
2022/12/27 04:58:24;;;;;;;10.00;2.22;;;;;;;;;;5027406;28;20084;-67
2022/12/27 05:03:35;;;;;;;10.90;2.28;;;;;;;;;;5028774;28;20479;-67
2022/12/27 05:06:02;;;;;;;12.80;2.25;;;;;;;;;;5029196;28;20550;-67
2022/12/27 05:14:01;;;;;;;12.00;2.20;;;;;;;;;;5048544;28;20040;-67
2022/12/27 05:16:36;;;;;;;11.55;2.63;;;;;;;;;;5048303;28;20052;-67
2022/12/27 05:19:03;;;;;;;13.38;2.15;;;;;;;;;;5048466;28;20190;-67
2022/12/27 05:21:29;;;;;;;10.05;2.30;;;;;;;;;;5048545;28;20053;-67
2022/12/27 05:26:40;;;;;;;9.20;2.55;;;;;;;;;;5034793;28;20045;-67
2022/12/27 05:29:07;;;;;;;17.88;2.60;;;;;;;;;;5028541;28;20045;-67
2022/12/27 05:31:33;;;;;;;11.27;2.47;;;;;;;;;;5034045;28;20041;-67
2022/12/27 05:33:59;;;;;;;10.95;2.75;;;;;;;;;;5034039;28;20037;-67
2022/12/27 05:36:26;;;;;;;10.77;2.80;;;;;;;;;;5033789;28;20037;-67
2022/12/27 05:38:52;;;;;;;10.60;2.40;;;;;;;;;;5033684;28;20046;-67
2022/12/27 05:41:18;;;;;;;11.32;2.53;;;;;;;;;;5033805;28;20404;-67
2022/12/27 05:43:45;;;;;;;16.05;2.58;;;;;;;;;;5034053;28;20068;-67
2022/12/27 05:46:12;;;;;;;8.70;2.10;;;;;;;;;;5033382;28;20049;-67
2022/12/27 05:48:38;;;;;;;9.73;2.30;;;;;;;;;;5034065;28;20037;-67
2022/12/27 05:51:08;;;;;;;12.48;2.53;;;;;;;;;;5033947;28;20507;-67
2022/12/27 05:53:34;;;;;;;8.43;2.42;;;;;;;;;;5033531;28;20045;-67
2022/12/27 05:56:00;;;;;;;14.43;2.53;;;;;;;;;;5032462;28;20052;-67
2022/12/27 05:58:27;;;;;;;8.95;2.10;;;;;;;;;;5033906;28;20111;-67
2022/12/27 06:00:53;;;;;;;10.38;2.13;;;;;;;;;;5031881;28;20438;-67
2022/12/27 06:03:19;;;;;;;13.18;2.10;;;;;;;;;;5033654;28;20452;-67
2022/12/27 06:05:45;;;;;;;12.95;2.25;;;;;;;;;;5033406;28;20454;-67
2022/12/27 06:08:12;;;;;;;6.30;1.70;;;;;;;;;;5033047;28;20049;-67
2022/12/27 06:10:38;;;;;;;11.55;2.22;;;;;;;;;;5041269;28;20041;-67
2022/12/27 06:13:04;;;;;;;8.32;2.15;;;;;;;;;;5051611;28;20120;-67
2022/12/27 06:15:30;;;;;;;14.10;2.15;;;;;;;;;;5051531;28;20415;-67
2022/12/27 06:17:57;;;;;;;7.82;2.05;;;;;;;;;;5051648;28;20044;-67
2022/12/27 06:20:23;;;;;;;11.25;2.13;;;;;;;;;;5051706;28;20116;-67
2022/12/27 06:22:49;;;;;;;10.18;2.28;;;;;;;;;;5051405;28;20175;-67
2022/12/27 06:25:15;;;;;;;14.30;3.10;;;;;;;;;;5049689;28;20434;-67
2022/12/27 06:27:41;;;;;;;10.15;2.45;;;;;;;;;;5031688;28;20041;-67
2022/12/27 06:30:09;;;;;;;9.82;2.00;;;;;;;;;;5031328;28;20042;-67
2022/12/27 06:32:35;;;;;;;13.07;1.92;;;;;;;;;;5031519;28;20519;-67
2022/12/27 06:35:01;;;;;;;10.52;2.30;;;;;;;;;;5031625;28;20037;-67
2022/12/27 06:37:29;;;;;;;6.57;1.77;;;;;;;;;;5030804;28;20049;-67
2022/12/27 06:39:55;;;;;;;12.85;2.40;;;;;;;;;;5031506;28;20075;-67
2022/12/27 06:42:21;;;;;;;9.23;2.10;;;;;;;;;;5030890;28;20068;-67
2022/12/27 06:44:47;;;;;;;6.57;1.80;;;;;;;;;;5030787;28;20111;-67
2022/12/27 06:47:13;;;;;;;9.77;2.08;;;;;;;;;;5031246;28;20045;-67
2022/12/27 06:49:39;;;;;;;12.90;3.75;;;;;;;;;;5031422;28;20564;-67
2022/12/27 06:52:05;;;;;;;14.77;3.50;;;;;;;;;;5030869;28;20060;-67
2022/12/27 06:54:31;;;;;;;7.35;2.35;;;;;;;;;;5030713;28;20241;-67
2022/12/27 06:56:57;;;;;;;15.43;3.53;;;;;;;;;;5031164;28;20041;-67
2022/12/27 06:59:23;;;;;;;10.98;2.78;;;;;;;;;;5030578;28;20056;-67
2022/12/27 07:01:49;;;;;;;7.95;2.58;;;;;;;;;;5030830;28;20074;-67
2022/12/27 07:04:15;;;;;;;10.20;2.30;;;;;;;;;;5030934;28;20512;-67
2022/12/27 07:06:41;;;;;;;12.95;2.60;;;;;;;;;;5029299;28;20049;-67
2022/12/27 07:09:07;;;;;;;14.88;3.05;;;;;;;;;;5030355;28;20563;-67
2022/12/27 07:11:34;;;;;;;10.00;2.70;;;;;;;;;;5046477;28;20122;-67
2022/12/27 07:14:00;;;;;;;12.00;3.05;;;;;;;;;;5049694;28;20048;-67
2022/12/27 07:16:27;;;;;;;14.68;2.78;;;;;;;;;;5050741;28;20597;-67
2022/12/27 07:18:57;;;;;;;12.85;2.60;;;;;;;;;;5050250;28;20053;-67
2022/12/27 07:21:23;;;;;;;10.15;2.25;;;;;;;;;;5050123;28;20124;-67
2022/12/27 07:23:50;;;;;;;13.73;3.33;;;;;;;;;;5049895;28;20487;-67
2022/12/27 07:26:17;;;;;;;12.57;2.85;;;;;;;;;;5039598;28;20041;-67
2022/12/27 07:28:43;;;;;;;12.00;2.53;;;;;;;;;;5029941;28;20044;-67
2022/12/27 07:31:11;;;;;;;13.75;3.20;;;;;;;;;;5030462;28;20043;-67
2022/12/27 07:33:37;;;;;;;12.55;2.83;;;;;;;;;;5028617;28;20045;-67
2022/12/27 07:36:04;;;;;;;11.70;2.55;;;;;;;;;;5029834;28;20042;-67
2022/12/27 07:38:30;;;;;;;15.32;3.20;;;;;;;;;;5029993;28;20045;-67
2022/12/27 07:41:00;;;;;;;18.42;3.40;;;;;;;;;;5029952;28;20049;-67
2022/12/27 07:43:29;;;;;;;15.50;3.10;;;;;;;;;;5028694;28;20045;-67
2022/12/27 07:45:55;;;;;;;8.43;2.88;;;;;;;;;;5030402;28;20042;-67
2022/12/27 07:48:21;;;;;;;11.55;2.83;;;;;;;;;;5029962;28;20063;-67
2022/12/27 07:50:56;;;;;;;8.60;2.50;;;;;;;;;;5029449;28;20112;-67
2022/12/27 07:53:22;;;;;;;12.60;3.00;;;;;;;;;;5029567;28;20137;-67
2022/12/27 07:55:49;;;;;;;12.45;2.50;;;;;;;;;;5029514;28;20112;-67
2022/12/27 07:58:16;;;;;;;6.00;2.25;;;;;;;;;;5029755;28;20515;-67
2022/12/27 08:00:42;;;;;;;9.48;2.10;;;;;;;;;;5029730;28;20083;-67
2022/12/27 08:03:08;;;;;;;13.52;2.63;;;;;;;;;;5029980;28;20076;-67
2022/12/27 08:05:34;;;;;;;11.18;2.35;;;;;;;;;;5029455;28;20049;-67
2022/12/27 08:08:01;;;;;;;9.85;2.60;;;;;;;;;;5029712;28;20129;-67
2022/12/27 08:10:27;;;;;;;10.20;2.13;;;;;;;;;;5036087;28;20095;-67
2022/12/27 08:12:53;;;;;;;10.38;2.47;;;;;;;;;;5049144;28;20041;-67
2022/12/27 08:15:20;;;;;;;10.30;2.65;;;;;;;;;;5049285;28;20109;-67
2022/12/27 08:17:46;;;;;;;9.45;2.45;;;;;;;;;;5043267;28;20068;-67
2022/12/27 08:20:13;;;;;;;9.20;2.38;;;;;;;;;;5032549;28;20581;-67
2022/12/27 08:22:39;;;;;;;11.88;3.08;;;;;;;;;;5051981;28;20048;-67
2022/12/27 08:25:07;;;;;;;14.45;2.63;;;;;;;;;;5052633;28;20068;-67
2022/12/27 08:27:33;;;;;;;12.30;2.80;;;;;;;;;;5034201;28;20041;-67
2022/12/27 08:29:59;;;;;;;23.80;3.38;;;;;;;;;;5032879;28;20056;-67
2022/12/27 08:32:25;;;;;;;8.82;2.55;;;;;;;;;;5032006;28;20045;-67
2022/12/27 08:34:51;;;;;;;17.27;3.28;;;;;;;;;;5031591;28;20107;-67
2022/12/27 08:37:17;;;;;;;13.00;3.08;;;;;;;;;;5033245;28;20041;-67
2022/12/27 08:39:43;;;;;;;15.63;3.78;;;;;;;;;;5014825;28;20040;-67
2022/12/27 08:42:12;;;;;;;15.85;3.05;;;;;;;;;;5030609;28;20472;-67
2022/12/27 08:44:38;;;;;;;8.38;2.67;;;;;;;;;;5031875;28;20033;-67
2022/12/27 08:47:04;;;;;;;13.43;3.00;;;;;;;;;;5032252;28;20065;-67
2022/12/27 08:49:31;;;;;;;13.13;3.38;;;;;;;;;;5031294;28;20464;-67
2022/12/27 08:51:57;;;;;;;16.17;2.92;;;;;;;;;;5032140;28;20038;-67
2022/12/27 08:54:23;;;;;;;20.80;4.03;;;;;;;;;;5031570;28;20050;-67
2022/12/27 08:56:49;;;;;;;14.52;3.47;;;;;;;;;;5031213;28;20075;-67
2022/12/27 08:59:15;;;;;;;16.20;3.63;;;;;;;;;;5014097;28;20049;-67
2022/12/27 09:01:42;;;;;;;8.30;2.92;;;;;;;;;;5031624;28;20049;-67
2022/12/27 09:04:08;;;;;;;11.68;3.70;;;;;;;;;;5033049;28;20048;-67
2022/12/27 09:06:34;;;;;;;10.85;3.58;;;;;;;;;;5033445;28;20033;-67
2022/12/27 09:09:01;;;;;;;18.63;3.97;;;;;;;;;;5032604;28;20037;-67
2022/12/27 09:11:29;;;;;;;14.15;3.20;;;;;;;;;;5045638;28;20878;-67
2022/12/27 09:13:55;;;;;;;14.68;3.55;;;;;;;;;;5052214;28;20048;-66
2022/12/27 09:16:23;;;;;;;13.80;3.28;;;;;;;;;;5052921;28;20068;-66
2022/12/27 09:18:50;;;;;;;11.82;3.50;;;;;;;;;;5053870;28;20099;-66
2022/12/27 09:21:17;;;;;;;12.45;3.35;;;;;;;;;;5054096;28;20040;-66
2022/12/27 09:23:43;;;;;;;11.40;3.08;;;;;;;;;;5054876;28;20033;-66
2022/12/27 09:26:17;;;;;;;13.32;3.75;;;;;;;;;;5042673;28;20045;-66
2022/12/27 09:28:43;;;;;;;16.50;4.20;;;;;;;;;;5034602;28;20045;-66
2022/12/27 09:31:10;;;;;;;11.77;3.58;;;;;;;;;;5034295;28;20057;-66
2022/12/27 09:33:36;;;;;;;19.63;3.95;;;;;;;;;;5033102;28;20049;-66
2022/12/27 09:36:06;;;;;;;14.38;3.90;;;;;;;;;;5033906;28;20432;-66
2022/12/27 09:38:32;;;;;;;13.35;4.15;;;;;;;;;;5024661;28;20083;-66
2022/12/27 09:41:00;;;;;;;15.68;3.42;;;;;;;;;;5022564;28;20563;-66
2022/12/27 09:43:41;;;;;;;12.52;3.33;;;;;;;;;;5030520;28;20056;-66
2022/12/27 09:46:16;;;;;;;14.52;3.35;;;;;;;;;;5018283;28;20137;-66
2022/12/27 09:48:42;;;;;;;15.32;3.25;;;;;;;;;;5022315;28;20107;-66
2022/12/27 09:51:13;;;;;;;10.73;3.10;;;;;;;;;;5029378;28;20088;-66
2022/12/27 09:53:39;;;;;;;12.88;2.83;;;;;;;;;;5030849;28;20116;-66
2022/12/27 09:56:05;;;;;;;13.60;3.65;;;;;;;;;;5032394;28;20055;-66
2022/12/27 09:58:37;;;;;;;14.98;3.97;;;;;;;;;;5031910;28;20140;-66
2022/12/27 10:01:11;;;;;;;12.73;3.47;;;;;;;;;;5013137;28;20045;-66
2022/12/27 10:03:37;;;;;;;13.85;3.50;;;;;;;;;;5009568;28;20120;-66
2022/12/27 10:06:24;;;;;;;10.85;2.85;;;;;;;;;;5026010;28;20041;-66
2022/12/27 10:09:08;;;;;;;10.70;2.97;;;;;;;;;;5025638;28;20049;-66
2022/12/27 10:11:53;;;;;;;12.27;3.17;;;;;;;;;;5040373;28;20033;-67
2022/12/27 10:14:37;;;;;;;12.90;3.28;;;;;;;;;;5030423;28;20048;-66
2022/12/27 10:17:12;;;;;;;13.40;3.53;;;;;;;;;;5031691;28;20556;-66
2022/12/27 10:19:44;;;;;;;10.10;3.33;;;;;;;;;;5032096;28;20046;-66
2022/12/27 10:22:13;;;;;;;10.55;2.47;;;;;;;;;;5030300;28;20128;-66
2022/12/27 10:24:41;;;;;;;12.48;3.28;;;;;;;;;;5035244;28;20049;-66
2022/12/27 10:27:14;;;;;;;12.52;3.13;;;;;;;;;;5033991;28;20037;-67
2022/12/27 10:29:41;;;;;;;11.40;3.03;;;;;;;;;;5031665;28;20557;-67
2022/12/27 10:32:10;;;;;;;10.95;2.63;;;;;;;;;;5033300;28;20052;-67
2022/12/27 10:34:36;;;;;;;16.85;2.97;;;;;;;;;;5029718;28;20049;-67
2022/12/27 10:37:02;;;;;;;10.93;3.58;;;;;;;;;;5035011;28;20555;-67
2022/12/27 10:39:29;;;;;;;11.05;2.60;;;;;;;;;;5031853;28;20124;-67
2022/12/27 10:42:24;;;;;;;18.33;3.17;;;;;;;;;;5031816;28;20042;-67
2022/12/27 10:44:50;;;;;;;10.80;2.63;;;;;;;;;;5019127;28;20115;-67
2022/12/27 10:47:16;;;;;;;18.13;3.17;;;;;;;;;;5032060;28;20037;-67
2022/12/27 10:49:44;;;;;;;17.30;2.70;;;;;;;;;;5031170;28;20124;-67
2022/12/27 10:52:15;;;;;;;11.38;2.92;;;;;;;;;;5031301;28;20392;-67
2022/12/27 10:54:51;;;;;;;12.02;2.58;;;;;;;;;;5033550;28;20487;-67
2022/12/27 10:57:25;;;;;;;14.07;2.80;;;;;;;;;;5030532;28;20053;-67
2022/12/27 11:00:12;;;;;;;14.70;3.38;;;;;;;;;;5030864;28;20072;-67
2022/12/27 11:02:48;;;;;;;14.40;2.85;;;;;;;;;;5022724;28;20052;-67
2022/12/27 11:05:19;;;;;;;8.63;2.83;;;;;;;;;;5031846;28;20046;-67
2022/12/27 11:07:45;;;;;;;12.65;3.00;;;;;;;;;;5033514;28;20088;-67
2022/12/27 11:10:19;;;;;;;9.07;2.58;;;;;;;;;;5036448;28;20039;-67
2022/12/27 11:13:05;;;;;;;13.07;2.80;;;;;;;;;;5050671;28;20041;-67
2022/12/27 11:15:37;;;;;;;10.55;2.78;;;;;;;;;;5031517;28;20049;-67
2022/12/27 11:18:09;;;;;;;12.50;2.20;;;;;;;;;;5029618;28;20087;-67
2022/12/27 11:20:40;;;;;;;14.88;2.63;;;;;;;;;;5030059;28;20065;-67
2022/12/27 11:23:06;;;;;;;11.07;2.47;;;;;;;;;;5032302;28;20115;-67
2022/12/27 11:25:33;;;;;;;10.02;2.03;;;;;;;;;;5029944;28;20667;-67
2022/12/27 11:28:13;;;;;;;9.13;2.22;;;;;;;;;;5032828;28;20046;-67
2022/12/27 11:30:40;;;;;;;12.07;2.47;;;;;;;;;;5028005;28;20037;-67
2022/12/27 11:33:25;;;;;;;9.32;2.17;;;;;;;;;;5014441;28;20033;-67
2022/12/27 11:35:52;;;;;;;10.88;2.30;;;;;;;;;;5032283;28;20041;-67
2022/12/27 11:38:38;;;;;;;12.48;2.20;;;;;;;;;;5019590;28;20052;-67
2022/12/27 11:41:04;;;;;;;6.00;1.90;;;;;;;;;;5013593;28;20547;-67
2022/12/27 11:43:35;;;;;;;14.68;2.53;;;;;;;;;;5030995;28;20048;-67
2022/12/27 11:46:02;;;;;;;14.90;2.45;;;;;;;;;;5030756;28;20037;-67
2022/12/27 11:48:35;;;;;;;11.80;2.33;;;;;;;;;;5030787;28;20480;-67
2022/12/27 11:51:01;;;;;;;;;;;;;;;;;;5030011;28;20095;-67
2022/12/27 11:53:36;;;;;;;13.27;2.85;;;;;;;;;;5029974;28;20543;-67
2022/12/27 11:56:05;;;;;;;17.15;2.70;;;;;;;;;;5029908;28;20073;-67
2022/12/27 11:58:40;;;;;;;13.52;3.55;;;;;;;;;;5031589;28;20037;-67
2022/12/27 12:01:22;;;;;;;20.13;3.08;;;;;;;;;;5031999;28;20053;-67
2022/12/27 12:04:12;;;;;;;14.25;2.97;;;;;;;;;;5010493;28;20469;-67
2022/12/27 12:06:58;;;;;;;14.90;2.38;;;;;;;;;;5023143;28;20106;-67
2022/12/27 12:09:24;;;;;;;12.23;2.92;;;;;;;;;;5025048;28;20037;-67
2022/12/27 12:11:50;;;;;;;9.77;2.42;;;;;;;;;;5029213;28;20091;-67
2022/12/27 12:14:35;;;;;;;10.10;2.80;;;;;;;;;;5031270;28;20028;-67
2022/12/27 12:17:19;;;;;;;8.82;2.92;;;;;;;;;;5031904;28;20095;-67
2022/12/27 12:19:51;;;;;;;12.82;2.67;;;;;;;;;;5031214;28;20057;-67
2022/12/27 12:22:32;;;;;;;10.80;3.03;;;;;;;;;;5030673;28;20099;-67
2022/12/27 12:25:17;;;;;;;14.32;2.80;;;;;;;;;;5030301;28;20045;-67
2022/12/27 12:27:49;;;;;;;14.20;2.88;;;;;;;;;;5012263;28;20060;-67
2022/12/27 12:30:31;;;;;;;10.52;2.92;;;;;;;;;;5024233;28;20033;-67
2022/12/27 12:32:56;;;;;;;12.18;3.65;;;;;;;;;;5030820;28;20037;-67
2022/12/27 12:35:23;;;;;;;12.00;3.00;;;;;;;;;;5027628;28;20356;-67
2022/12/27 12:37:49;;;;;;;18.40;4.10;;;;;;;;;;5029913;28;20041;-67
2022/12/27 12:40:27;;;;;;;16.05;3.55;;;;;;;;;;5030046;28;20052;-67
2022/12/27 12:42:53;;;;;;;8.18;3.20;;;;;;;;;;5030313;28;20069;-67
2022/12/27 12:45:24;;;;;;;8.80;3.20;;;;;;;;;;5029069;28;20041;-67
2022/12/27 12:48:10;;;;;;;19.07;3.90;;;;;;;;;;5011949;28;20060;-67
2022/12/27 12:50:51;;;;;;;19.70;4.65;;;;;;;;;;5030420;28;20045;-67
2022/12/27 12:53:40;;;;;;;19.70;4.32;;;;;;;;;;5030130;28;20045;-67
2022/12/27 12:56:10;;;;;;;10.75;3.53;;;;;;;;;;5033650;28;20061;-67
2022/12/27 12:58:53;;;;;;;13.73;3.67;;;;;;;;;;5036279;28;20041;-67
2022/12/27 13:01:25;;;;;;;17.63;3.63;;;;;;;;;;5028849;28;20652;-67
2022/12/27 13:03:51;;;;;;;11.63;3.55;;;;;;;;;;5012196;28;20046;-67
2022/12/27 13:06:35;;;;;;;14.15;3.60;;;;;;;;;;5022354;28;20096;-67
2022/12/27 13:09:21;;;;;;;11.63;3.05;;;;;;;;;;5031447;28;20258;-67
2022/12/27 13:11:58;;;;;;;18.63;4.05;;;;;;;;;;5050690;28;20110;-67
2022/12/27 13:14:34;;;;;;;9.27;3.70;;;;;;;;;;5029135;28;20042;-67
2022/12/27 13:17:18;;;;;;;14.07;3.78;;;;;;;;;;5029731;28;20537;-67
2022/12/27 13:19:54;;;;;;;16.52;3.65;;;;;;;;;;5028723;28;20065;-67
2022/12/27 13:22:20;;;;;;;9.70;3.65;;;;;;;;;;5024269;28;20766;-67
2022/12/27 13:25:10;;;;;;;10.43;3.40;;;;;;;;;;5030719;28;20053;-67
2022/12/27 13:27:42;;;;;;;10.10;4.00;;;;;;;;;;5027099;28;20144;-67
2022/12/27 13:30:14;;;;;;;13.23;4.35;;;;;;;;;;5026068;28;20038;-67
2022/12/27 13:32:43;;;;;;;16.40;3.83;;;;;;;;;;5028374;28;20106;-67
2022/12/27 13:35:16;;;;;;;13.70;4.47;;;;;;;;;;5031048;28;20037;-67
2022/12/27 13:38:01;;;;;;;15.05;3.97;;;;;;;;;;5030158;28;20048;-67
2022/12/27 13:40:45;;;;;;;13.60;3.90;;;;;;;;;;5027449;28;20132;-67
2022/12/27 13:43:21;;;;;;;13.32;5.45;;;;;;;;;;5030939;28;20087;-67
2022/12/27 13:46:13;;;;;;;14.70;6.18;;;;;;;;;;5030118;28;20053;-67
2022/12/27 13:48:59;;;;;;;22.05;6.13;;;;;;;;;;5014125;28;20060;-67
2022/12/27 13:51:31;;;;;;;12.95;5.70;;;;;;;;;;5030992;28;20056;-67
2022/12/27 13:54:08;;;;;;;21.25;6.40;;;;;;;;;;5029691;28;20104;-67
2022/12/27 13:56:40;;;;;;;14.50;6.80;;;;;;;;;;5033601;28;20038;-67
2022/12/27 13:59:24;;;;;;;15.73;7.68;;;;;;;;;;5032244;28;20051;-67
2022/12/27 14:02:01;;;;;;;16.73;8.45;;;;;;;;;;5031818;28;20045;-67
2022/12/27 14:04:38;;;;;;;18.10;9.32;;;;;;;;;;5033697;28;20488;-67
2022/12/27 14:07:26;;;;;;;16.05;8.18;;;;;;;;;;5027040;28;20112;-67
2022/12/27 14:10:01;;;;;;;17.85;9.05;;;;;;;;;;5032164;28;20060;-67
2022/12/27 14:12:27;;;;;;;21.35;10.57;;;;;;;;;;5034037;28;20403;-67
2022/12/27 14:14:54;;;;;;;21.02;10.57;;;;;;;;;;5033023;28;20116;-67
2022/12/27 14:17:20;;;;;;;22.02;10.93;;;;;;;;;;5015547;28;20103;-67
2022/12/27 14:20:05;;;;;;;23.25;11.10;;;;;;;;;;5013593;28;20062;-67
2022/12/27 14:22:40;;;;;;;24.20;10.93;;;;;;;;;;5019408;28;20515;-67
2022/12/27 14:25:15;;;;;;;20.50;10.68;;;;;;;;;;5031710;28;20120;-67
2022/12/27 14:28:00;;;;;;;23.23;11.18;;;;;;;;;;5033364;28;20052;-67
2022/12/27 14:30:44;;;;;;;23.15;11.18;;;;;;;;;;5027316;28;20096;-67
2022/12/27 14:33:16;;;;;;;20.20;10.90;;;;;;;;;;5014375;28;20074;-67
2022/12/27 14:35:45;;;;;;;25.52;12.10;;;;;;;;;;5028710;28;20050;-67
2022/12/27 14:38:26;;;;;;;24.77;11.25;;;;;;;;;;5032900;28;20125;-67
2022/12/27 14:41:07;;;;;;;26.60;11.88;;;;;;;;;;5032144;28;20080;-67
2022/12/27 14:43:52;;;;;;;24.17;11.85;;;;;;;;;;5017147;28;20052;-67
2022/12/27 14:46:26;;;;;;;24.45;12.25;;;;;;;;;;5017951;28;20091;-67
2022/12/27 14:49:11;;;;;;;19.30;11.07;;;;;;;;;;5032974;28;20132;-67
2022/12/27 14:51:55;;;;;;;23.05;12.88;;;;;;;;;;5011191;28;20081;-67
2022/12/27 14:54:42;;;;;;;21.05;12.07;;;;;;;;;;5025757;28;20038;-67
2022/12/27 14:57:24;;;;;;;22.70;13.15;;;;;;;;;;5012582;28;20042;-65
2022/12/27 15:00:09;;;;;;;19.02;11.57;;;;;;;;;;5013481;28;20042;-65
2022/12/27 15:02:35;;;;;;;22.20;12.57;;;;;;;;;;5013251;28;20045;-65
2022/12/27 15:05:10;;;;;;;26.55;12.88;;;;;;;;;;5013678;28;20095;-65
2022/12/27 15:07:55;;;;;;;25.52;12.38;;;;;;;;;;5013064;28;20088;-65
2022/12/27 15:10:24;;;;;;;25.23;12.02;;;;;;;;;;5031981;28;20025;-65
2022/12/27 15:12:59;;;;;;;22.40;12.88;;;;;;;;;;5052239;28;20033;-65
2022/12/27 15:15:31;;;;;;;18.45;12.15;;;;;;;;;;5051012;28;20037;-65
2022/12/27 15:18:04;;;;;;;22.70;13.40;;;;;;;;;;5052669;28;20055;-65
2022/12/27 15:21:02;;;;;;;22.33;12.27;;;;;;;;;;5052432;28;20092;-65
2022/12/27 15:23:32;;;;;;;19.20;11.75;;;;;;;;;;5028773;28;20530;-65
2022/12/27 15:25:58;;;;;;;23.05;12.57;;;;;;;;;;5043227;28;20063;-65
2022/12/27 15:28:30;;;;;;;25.50;12.93;;;;;;;;;;5031208;28;20041;-65
2022/12/27 15:31:20;;;;;;;21.10;12.48;;;;;;;;;;5032891;28;20041;-65
2022/12/27 15:33:55;;;;;;;17.50;12.02;;;;;;;;;;5032725;28;20621;-65
2022/12/27 15:36:35;;;;;;;23.60;12.98;;;;;;;;;;5030875;28;20037;-65
2022/12/27 15:39:03;;;;;;;21.48;12.48;;;;;;;;;;5032464;28;20138;-65
2022/12/27 15:41:36;;;;;;;19.88;12.18;;;;;;;;;;5030730;28;20057;-65
2022/12/27 15:44:12;;;;;;;22.55;12.18;;;;;;;;;;5031967;28;20045;-65
2022/12/27 15:46:50;;;;;;;25.95;12.15;;;;;;;;;;5032197;28;20048;-65
2022/12/27 15:49:35;;;;;;;21.10;12.25;;;;;;;;;;5032355;28;20073;-65
2022/12/27 15:52:20;;;;;;;23.15;11.30;;;;;;;;;;5030558;28;20095;-65
2022/12/27 15:54:46;;;;;;;22.98;11.60;;;;;;;;;;5032147;28;20042;-65
2022/12/27 15:57:30;;;;;;;16.92;10.93;;;;;;;;;;5032213;28;20041;-65
2022/12/27 16:00:15;;;;;;;25.40;10.98;;;;;;;;;;5030322;28;20088;-65
2022/12/27 16:02:44;;;;;;;18.17;10.48;;;;;;;;;;5031951;28;20124;-65
2022/12/27 16:05:23;;;;;;;17.75;10.30;;;;;;;;;;5032182;28;20148;-65
2022/12/27 16:07:58;;;;;;;18.73;10.68;;;;;;;;;;5032243;28;20045;-65
2022/12/27 16:10:30;;;;;;;16.05;10.48;;;;;;;;;;5038278;28;20037;-65
2022/12/27 16:13:19;;;;;;;19.30;10.20;;;;;;;;;;5051927;28;20106;-65
2022/12/27 16:15:46;;;;;;;19.45;10.48;;;;;;;;;;5046102;28;20515;-65
2022/12/27 16:18:18;;;;;;;25.02;13.38;;;;;;;;;;5051977;28;20728;-65
2022/12/27 16:20:53;;;;;;;21.33;13.30;;;;;;;;;;5050227;28;20407;-65
2022/12/27 16:23:31;;;;;;;19.20;11.38;;;;;;;;;;5050687;28;20057;-65
2022/12/27 16:26:00;;;;;;;16.77;10.73;;;;;;;;;;5043848;28;20565;-65